カラチ の空港の天気 - METARとTAF

ジンナー国際空港(カラチ) ( OPKC / KHI ) - パキスタン Karachi
飛行場実況気象(Metar)
観測時間10/15 21:55 PKT (10/15 16:55 UTC)
風向・風速西 2m/s
視程6000m
天気現象
なし
気温29℃
湿度70%
気圧1014hPa
METAROPKC 151655Z 27004KT 6000 NSC 29/23 Q1014 NOSIG
過去の天気等 Google飛行場航空写真 Wunderground天気予報

過去48時間のMETAR

飛行場予報(TAF)
発表時間: 10/15 17:30 PKT (10/15 12:30 UTC)
予報対象時間: 15日20時 PKT ~ 16日5時 PKT
風向・風速西南西 4m/s
視程6000m
なし
TAF OPKC 151230Z 1515/1524 25007KT 6000 NSC